sensor_id;sensor_type;location;lat;lon;timestamp;P1;durP1;ratioP1;P2;durP2;ratioP2
35675;SDS011;21790;42.668;23.298;2023-07-31T00:00:54;6.10;;;3.58;;
35675;SDS011;21790;42.668;23.298;2023-07-31T00:47:37;7.38;;;4.13;;
35675;SDS011;21790;42.668;23.298;2023-07-31T00:53:17;5.20;;;3.55;;
35675;SDS011;21790;42.668;23.298;2023-07-31T05:21:36;173.52;;;29.20;;
35675;SDS011;21790;42.668;23.298;2023-07-31T05:24:02;25.33;;;17.60;;
35675;SDS011;21790;42.668;23.298;2023-07-31T05:26:28;27.08;;;17.42;;
35675;SDS011;21790;42.668;23.298;2023-07-31T05:28:54;20.27;;;15.45;;
35675;SDS011;21790;42.668;23.298;2023-07-31T05:31:23;19.23;;;15.27;;
35675;SDS011;21790;42.668;23.298;2023-07-31T05:36:20;21.13;;;15.52;;
35675;SDS011;21790;42.668;23.298;2023-07-31T05:38:46;26.30;;;15.52;;
35675;SDS011;21790;42.668;23.298;2023-07-31T05:41:12;16.77;;;13.07;;
35675;SDS011;21790;42.668;23.298;2023-07-31T05:43:38;14.23;;;12.05;;
35675;SDS011;21790;42.668;23.298;2023-07-31T05:46:04;12.77;;;10.77;;
35675;SDS011;21790;42.668;23.298;2023-07-31T05:48:31;17.98;;;13.13;;
35675;SDS011;21790;42.668;23.298;2023-07-31T05:50:59;16.10;;;11.40;;
35675;SDS011;21790;42.668;23.298;2023-07-31T05:53:25;10.70;;;8.68;;
35675;SDS011;21790;42.668;23.298;2023-07-31T05:55:50;12.57;;;7.50;;
35675;SDS011;21790;42.668;23.298;2023-07-31T05:58:16;9.48;;;8.20;;
35675;SDS011;21790;42.668;23.298;2023-07-31T06:00:44;9.35;;;7.88;;
35675;SDS011;21790;42.668;23.298;2023-07-31T06:03:10;12.40;;;8.40;;
35675;SDS011;21790;42.668;23.298;2023-07-31T06:05:36;10.93;;;8.65;;
35675;SDS011;21790;42.668;23.298;2023-07-31T06:08:01;7.30;;;6.60;;
35675;SDS011;21790;42.668;23.298;2023-07-31T06:10:28;9.15;;;7.07;;
35675;SDS011;21790;42.668;23.298;2023-07-31T06:12:53;7.47;;;5.65;;
35675;SDS011;21790;42.668;23.298;2023-07-31T06:15:20;8.93;;;5.60;;
35675;SDS011;21790;42.668;23.298;2023-07-31T06:17:46;6.22;;;4.80;;
35675;SDS011;21790;42.668;23.298;2023-07-31T06:20:15;9.80;;;5.15;;
35675;SDS011;21790;42.668;23.298;2023-07-31T06:22:41;6.85;;;4.63;;
35675;SDS011;21790;42.668;23.298;2023-07-31T06:25:10;7.22;;;4.70;;
35675;SDS011;21790;42.668;23.298;2023-07-31T06:27:37;5.50;;;4.75;;
35675;SDS011;21790;42.668;23.298;2023-07-31T06:30:03;6.85;;;4.80;;
35675;SDS011;21790;42.668;23.298;2023-07-31T06:32:30;6.13;;;4.07;;
35675;SDS011;21790;42.668;23.298;2023-07-31T06:34:56;6.32;;;4.70;;
35675;SDS011;21790;42.668;23.298;2023-07-31T06:37:21;8.52;;;4.45;;
35675;SDS011;21790;42.668;23.298;2023-07-31T06:39:49;17.50;;;4.70;;
35675;SDS011;21790;42.668;23.298;2023-07-31T06:42:15;5.38;;;4.22;;
35675;SDS011;21790;42.668;23.298;2023-07-31T06:44:43;4.75;;;4.25;;
35675;SDS011;21790;42.668;23.298;2023-07-31T06:47:08;4.85;;;4.35;;
35675;SDS011;21790;42.668;23.298;2023-07-31T06:49:35;7.97;;;4.60;;
35675;SDS011;21790;42.668;23.298;2023-07-31T06:52:01;6.40;;;4.18;;
35675;SDS011;21790;42.668;23.298;2023-07-31T06:54:27;6.05;;;4.18;;
35675;SDS011;21790;42.668;23.298;2023-07-31T06:56:54;6.95;;;4.10;;
35675;SDS011;21790;42.668;23.298;2023-07-31T06:59:20;4.60;;;3.92;;
35675;SDS011;21790;42.668;23.298;2023-07-31T07:01:45;4.28;;;3.85;;
35675;SDS011;21790;42.668;23.298;2023-07-31T07:04:11;5.50;;;3.45;;
35675;SDS011;21790;42.668;23.298;2023-07-31T07:06:37;5.97;;;3.75;;
35675;SDS011;21790;42.668;23.298;2023-07-31T07:09:03;5.55;;;3.55;;
35675;SDS011;21790;42.668;23.298;2023-07-31T07:11:29;4.20;;;3.10;;
35675;SDS011;21790;42.668;23.298;2023-07-31T07:13:54;6.20;;;3.83;;
35675;SDS011;21790;42.668;23.298;2023-07-31T07:16:20;6.15;;;3.80;;
35675;SDS011;21790;42.668;23.298;2023-07-31T07:18:46;4.30;;;3.17;;
35675;SDS011;21790;42.668;23.298;2023-07-31T07:21:11;7.90;;;3.42;;
35675;SDS011;21790;42.668;23.298;2023-07-31T07:23:42;3.85;;;2.92;;
35675;SDS011;21790;42.668;23.298;2023-07-31T07:26:08;3.35;;;2.95;;
35675;SDS011;21790;42.668;23.298;2023-07-31T07:28:33;4.65;;;3.30;;
35675;SDS011;21790;42.668;23.298;2023-07-31T07:31:00;4.10;;;2.80;;
35675;SDS011;21790;42.668;23.298;2023-07-31T07:33:26;4.15;;;2.55;;
35675;SDS011;21790;42.668;23.298;2023-07-31T07:35:51;6.75;;;2.78;;
35675;SDS011;21790;42.668;23.298;2023-07-31T07:38:17;5.55;;;3.05;;
35675;SDS011;21790;42.668;23.298;2023-07-31T07:40:46;4.32;;;3.10;;
35675;SDS011;21790;42.668;23.298;2023-07-31T07:43:16;6.80;;;3.10;;
35675;SDS011;21790;42.668;23.298;2023-07-31T07:45:42;5.25;;;3.15;;
35675;SDS011;21790;42.668;23.298;2023-07-31T07:48:07;4.25;;;3.22;;
35675;SDS011;21790;42.668;23.298;2023-07-31T07:50:33;3.75;;;3.10;;
35675;SDS011;21790;42.668;23.298;2023-07-31T07:52:58;3.80;;;2.97;;
35675;SDS011;21790;42.668;23.298;2023-07-31T07:55:24;4.97;;;2.92;;
35675;SDS011;21790;42.668;23.298;2023-07-31T07:57:50;4.40;;;2.70;;
35675;SDS011;21790;42.668;23.298;2023-07-31T08:00:15;3.67;;;2.63;;
35675;SDS011;21790;42.668;23.298;2023-07-31T08:02:42;5.15;;;2.80;;
35675;SDS011;21790;42.668;23.298;2023-07-31T08:05:08;5.30;;;2.65;;
35675;SDS011;21790;42.668;23.298;2023-07-31T08:07:34;2.90;;;2.53;;
35675;SDS011;21790;42.668;23.298;2023-07-31T08:10:00;4.75;;;2.63;;
35675;SDS011;21790;42.668;23.298;2023-07-31T08:12:25;3.13;;;2.70;;
35675;SDS011;21790;42.668;23.298;2023-07-31T08:14:52;4.28;;;3.08;;
35675;SDS011;21790;42.668;23.298;2023-07-31T08:17:18;4.75;;;2.47;;
35675;SDS011;21790;42.668;23.298;2023-07-31T08:19:43;3.83;;;2.42;;
35675;SDS011;21790;42.668;23.298;2023-07-31T08:22:11;4.30;;;2.38;;
35675;SDS011;21790;42.668;23.298;2023-07-31T08:24:37;3.55;;;2.70;;
35675;SDS011;21790;42.668;23.298;2023-07-31T08:27:02;5.82;;;3.10;;
35675;SDS011;21790;42.668;23.298;2023-07-31T08:29:28;6.13;;;2.90;;
35675;SDS011;21790;42.668;23.298;2023-07-31T08:31:54;5.03;;;2.58;;
35675;SDS011;21790;42.668;23.298;2023-07-31T08:34:20;7.65;;;2.50;;
35675;SDS011;21790;42.668;23.298;2023-07-31T08:36:46;10.05;;;3.25;;
35675;SDS011;21790;42.668;23.298;2023-07-31T08:39:11;3.17;;;2.38;;
35675;SDS011;21790;42.668;23.298;2023-07-31T08:41:38;5.80;;;2.92;;
35675;SDS011;21790;42.668;23.298;2023-07-31T08:44:04;2.97;;;2.60;;
35675;SDS011;21790;42.668;23.298;2023-07-31T08:46:31;2.90;;;2.47;;
35675;SDS011;21790;42.668;23.298;2023-07-31T08:48:58;3.33;;;2.58;;
35675;SDS011;21790;42.668;23.298;2023-07-31T08:51:24;6.18;;;2.60;;
35675;SDS011;21790;42.668;23.298;2023-07-31T08:53:50;3.70;;;2.47;;
35675;SDS011;21790;42.668;23.298;2023-07-31T08:56:18;3.75;;;2.55;;
35675;SDS011;21790;42.668;23.298;2023-07-31T08:58:44;2.83;;;2.47;;
35675;SDS011;21790;42.668;23.298;2023-07-31T09:01:12;6.15;;;3.05;;
35675;SDS011;21790;42.668;23.298;2023-07-31T09:03:40;3.28;;;2.53;;
35675;SDS011;21790;42.668;23.298;2023-07-31T09:06:07;2.83;;;2.30;;
35675;SDS011;21790;42.668;23.298;2023-07-31T09:08:33;3.15;;;2.08;;
35675;SDS011;21790;42.668;23.298;2023-07-31T09:11:02;2.45;;;2.08;;
35675;SDS011;21790;42.668;23.298;2023-07-31T09:13:29;5.22;;;3.00;;
35675;SDS011;21790;42.668;23.298;2023-07-31T09:15:56;3.78;;;2.13;;
35675;SDS011;21790;42.668;23.298;2023-07-31T09:18:23;4.38;;;2.33;;
35675;SDS011;21790;42.668;23.298;2023-07-31T09:21:05;3.80;;;2.20;;
35675;SDS011;21790;42.668;23.298;2023-07-31T09:23:41;2.50;;;2.30;;
35675;SDS011;21790;42.668;23.298;2023-07-31T09:26:08;3.42;;;2.50;;
35675;SDS011;21790;42.668;23.298;2023-07-31T09:28:34;4.57;;;2.55;;
35675;SDS011;21790;42.668;23.298;2023-07-31T09:30:59;7.60;;;2.50;;
35675;SDS011;21790;42.668;23.298;2023-07-31T09:33:25;4.15;;;3.13;;
35675;SDS011;21790;42.668;23.298;2023-07-31T09:35:50;6.75;;;3.08;;
35675;SDS011;21790;42.668;23.298;2023-07-31T09:38:16;5.28;;;3.10;;
35675;SDS011;21790;42.668;23.298;2023-07-31T09:43:10;5.43;;;2.70;;
35675;SDS011;21790;42.668;23.298;2023-07-31T09:45:38;6.07;;;2.92;;
35675;SDS011;21790;42.668;23.298;2023-07-31T09:48:09;5.72;;;2.88;;
35675;SDS011;21790;42.668;23.298;2023-07-31T09:50:38;4.68;;;2.90;;
35675;SDS011;21790;42.668;23.298;2023-07-31T09:53:05;4.68;;;3.08;;
35675;SDS011;21790;42.668;23.298;2023-07-31T09:55:31;3.83;;;2.83;;
35675;SDS011;21790;42.668;23.298;2023-07-31T09:57:57;5.13;;;2.97;;
35675;SDS011;21790;42.668;23.298;2023-07-31T10:00:23;6.90;;;2.40;;
35675;SDS011;21790;42.668;23.298;2023-07-31T10:02:53;2.72;;;2.47;;
35675;SDS011;21790;42.668;23.298;2023-07-31T10:05:21;3.47;;;2.45;;
35675;SDS011;21790;42.668;23.298;2023-07-31T10:07:54;4.53;;;2.20;;
35675;SDS011;21790;42.668;23.298;2023-07-31T10:10:21;5.07;;;2.53;;
35675;SDS011;21790;42.668;23.298;2023-07-31T10:12:49;3.35;;;2.20;;
35675;SDS011;21790;42.668;23.298;2023-07-31T10:15:16;2.40;;;1.90;;
35675;SDS011;21790;42.668;23.298;2023-07-31T10:17:42;6.53;;;2.50;;
35675;SDS011;21790;42.668;23.298;2023-07-31T10:20:09;3.35;;;2.10;;
35675;SDS011;21790;42.668;23.298;2023-07-31T10:22:35;5.25;;;2.05;;
35675;SDS011;21790;42.668;23.298;2023-07-31T10:25:01;8.18;;;2.20;;
35675;SDS011;21790;42.668;23.298;2023-07-31T10:27:29;4.90;;;2.15;;
35675;SDS011;21790;42.668;23.298;2023-07-31T10:29:56;4.10;;;1.92;;
35675;SDS011;21790;42.668;23.298;2023-07-31T10:32:23;2.45;;;1.90;;
35675;SDS011;21790;42.668;23.298;2023-07-31T10:34:50;10.98;;;2.60;;
35675;SDS011;21790;42.668;23.298;2023-07-31T10:42:27;6.95;;;2.03;;
35675;SDS011;21790;42.668;23.298;2023-07-31T10:44:58;3.10;;;1.97;;
35675;SDS011;21790;42.668;23.298;2023-07-31T10:47:24;4.05;;;1.70;;
35675;SDS011;21790;42.668;23.298;2023-07-31T10:49:50;2.70;;;1.70;;
35675;SDS011;21790;42.668;23.298;2023-07-31T10:52:20;7.57;;;2.33;;
35675;SDS011;21790;42.668;23.298;2023-07-31T10:54:48;6.55;;;2.22;;
35675;SDS011;21790;42.668;23.298;2023-07-31T10:57:34;3.35;;;1.83;;
35675;SDS011;21790;42.668;23.298;2023-07-31T11:03:03;2.25;;;1.55;;
35675;SDS011;21790;42.668;23.298;2023-07-31T11:05:41;3.75;;;1.60;;
35675;SDS011;21790;42.668;23.298;2023-07-31T11:10:39;6.07;;;1.70;;
35675;SDS011;21790;42.668;23.298;2023-07-31T11:13:07;3.92;;;1.60;;
35675;SDS011;21790;42.668;23.298;2023-07-31T11:15:33;5.22;;;2.00;;
35675;SDS011;21790;42.668;23.298;2023-07-31T11:17:59;2.70;;;1.67;;
35675;SDS011;21790;42.668;23.298;2023-07-31T11:20:35;2.15;;;1.70;;
35675;SDS011;21790;42.668;23.298;2023-07-31T11:23:02;2.75;;;1.70;;
35675;SDS011;21790;42.668;23.298;2023-07-31T11:25:29;6.05;;;1.73;;
35675;SDS011;21790;42.668;23.298;2023-07-31T11:27:56;3.40;;;1.65;;
35675;SDS011;21790;42.668;23.298;2023-07-31T11:30:23;6.25;;;2.40;;
35675;SDS011;21790;42.668;23.298;2023-07-31T11:32:48;4.03;;;2.20;;
35675;SDS011;21790;42.668;23.298;2023-07-31T11:35:15;3.35;;;1.90;;
35675;SDS011;21790;42.668;23.298;2023-07-31T11:37:41;2.08;;;1.55;;
35675;SDS011;21790;42.668;23.298;2023-07-31T11:40:08;2.78;;;1.77;;
35675;SDS011;21790;42.668;23.298;2023-07-31T11:42:34;2.88;;;2.13;;
35675;SDS011;21790;42.668;23.298;2023-07-31T11:45:04;3.90;;;2.33;;
35675;SDS011;21790;42.668;23.298;2023-07-31T11:47:32;6.40;;;2.88;;
35675;SDS011;21790;42.668;23.298;2023-07-31T11:50:01;2.63;;;2.13;;
35675;SDS011;21790;42.668;23.298;2023-07-31T11:52:32;4.18;;;2.00;;
35675;SDS011;21790;42.668;23.298;2023-07-31T11:55:02;2.50;;;1.98;;
35675;SDS011;21790;42.668;23.298;2023-07-31T11:57:29;3.85;;;2.22;;
35675;SDS011;21790;42.668;23.298;2023-07-31T11:59:55;6.15;;;3.00;;
35675;SDS011;21790;42.668;23.298;2023-07-31T12:02:22;4.38;;;2.47;;
35675;SDS011;21790;42.668;23.298;2023-07-31T12:04:48;2.70;;;2.20;;
35675;SDS011;21790;42.668;23.298;2023-07-31T12:07:14;2.72;;;2.22;;
35675;SDS011;21790;42.668;23.298;2023-07-31T12:09:50;3.10;;;2.75;;
35675;SDS011;21790;42.668;23.298;2023-07-31T12:12:21;4.60;;;3.47;;
35675;SDS011;21790;42.668;23.298;2023-07-31T12:14:49;6.80;;;3.40;;
35675;SDS011;21790;42.668;23.298;2023-07-31T12:17:16;4.80;;;3.65;;
35675;SDS011;21790;42.668;23.298;2023-07-31T12:19:44;5.45;;;4.00;;
35675;SDS011;21790;42.668;23.298;2023-07-31T12:22:13;7.15;;;4.68;;
35675;SDS011;21790;42.668;23.298;2023-07-31T12:24:41;6.10;;;5.50;;
35675;SDS011;21790;42.668;23.298;2023-07-31T12:27:13;5.78;;;5.20;;
35675;SDS011;21790;42.668;23.298;2023-07-31T12:29:41;8.45;;;5.53;;
35675;SDS011;21790;42.668;23.298;2023-07-31T12:32:24;5.93;;;5.03;;
35675;SDS011;21790;42.668;23.298;2023-07-31T12:34:53;8.35;;;4.63;;
35675;SDS011;21790;42.668;23.298;2023-07-31T12:37:20;5.35;;;4.72;;
35675;SDS011;21790;42.668;23.298;2023-07-31T12:39:46;5.90;;;4.18;;
35675;SDS011;21790;42.668;23.298;2023-07-31T12:42:12;4.68;;;3.92;;
35675;SDS011;21790;42.668;23.298;2023-07-31T12:44:37;5.45;;;4.57;;
35675;SDS011;21790;42.668;23.298;2023-07-31T12:47:03;4.70;;;3.78;;
35675;SDS011;21790;42.668;23.298;2023-07-31T12:49:29;9.18;;;4.53;;
35675;SDS011;21790;42.668;23.298;2023-07-31T12:51:54;6.63;;;4.40;;
35675;SDS011;21790;42.668;23.298;2023-07-31T12:54:20;5.82;;;4.85;;
35675;SDS011;21790;42.668;23.298;2023-07-31T12:56:45;5.07;;;4.57;;
35675;SDS011;21790;42.668;23.298;2023-07-31T12:59:11;8.13;;;4.72;;
35675;SDS011;21790;42.668;23.298;2023-07-31T13:01:38;10.88;;;5.00;;
35675;SDS011;21790;42.668;23.298;2023-07-31T13:04:03;7.85;;;4.80;;
35675;SDS011;21790;42.668;23.298;2023-07-31T13:06:29;6.63;;;5.05;;
35675;SDS011;21790;42.668;23.298;2023-07-31T13:08:55;6.28;;;4.97;;
35675;SDS011;21790;42.668;23.298;2023-07-31T13:11:20;5.93;;;5.10;;
35675;SDS011;21790;42.668;23.298;2023-07-31T13:13:46;8.52;;;5.38;;
35675;SDS011;21790;42.668;23.298;2023-07-31T13:16:12;6.53;;;5.43;;
35675;SDS011;21790;42.668;23.298;2023-07-31T13:18:37;7.53;;;5.20;;
35675;SDS011;21790;42.668;23.298;2023-07-31T13:21:03;8.02;;;5.35;;
35675;SDS011;21790;42.668;23.298;2023-07-31T13:23:29;5.82;;;5.15;;
35675;SDS011;21790;42.668;23.298;2023-07-31T13:25:54;6.07;;;4.97;;
35675;SDS011;21790;42.668;23.298;2023-07-31T13:28:20;6.13;;;5.45;;
35675;SDS011;21790;42.668;23.298;2023-07-31T13:30:45;8.75;;;4.70;;
35675;SDS011;21790;42.668;23.298;2023-07-31T13:33:11;11.60;;;5.95;;
35675;SDS011;21790;42.668;23.298;2023-07-31T13:35:37;8.20;;;5.45;;
35675;SDS011;21790;42.668;23.298;2023-07-31T13:38:04;9.82;;;4.50;;
35675;SDS011;21790;42.668;23.298;2023-07-31T13:40:30;7.65;;;4.57;;
35675;SDS011;21790;42.668;23.298;2023-07-31T13:42:56;5.45;;;4.40;;
35675;SDS011;21790;42.668;23.298;2023-07-31T13:45:21;16.17;;;7.05;;
35675;SDS011;21790;42.668;23.298;2023-07-31T13:47:48;6.50;;;4.55;;
35675;SDS011;21790;42.668;23.298;2023-07-31T13:50:17;12.40;;;4.68;;
35675;SDS011;21790;42.668;23.298;2023-07-31T13:52:46;5.80;;;4.35;;
35675;SDS011;21790;42.668;23.298;2023-07-31T13:55:11;5.13;;;4.00;;
35675;SDS011;21790;42.668;23.298;2023-07-31T13:57:37;7.50;;;4.07;;
35675;SDS011;21790;42.668;23.298;2023-07-31T14:00:02;5.28;;;4.28;;
35675;SDS011;21790;42.668;23.298;2023-07-31T14:02:29;4.65;;;3.95;;
35675;SDS011;21790;42.668;23.298;2023-07-31T14:04:55;8.43;;;3.83;;
35675;SDS011;21790;42.668;23.298;2023-07-31T14:07:20;4.20;;;3.80;;
35675;SDS011;21790;42.668;23.298;2023-07-31T14:09:46;5.07;;;3.40;;
35675;SDS011;21790;42.668;23.298;2023-07-31T14:12:11;5.70;;;4.22;;
35675;SDS011;21790;42.668;23.298;2023-07-31T14:14:37;5.25;;;3.60;;
35675;SDS011;21790;42.668;23.298;2023-07-31T14:17:03;5.85;;;3.95;;
35675;SDS011;21790;42.668;23.298;2023-07-31T14:19:28;8.07;;;3.78;;
35675;SDS011;21790;42.668;23.298;2023-07-31T14:21:54;4.53;;;4.13;;
35675;SDS011;21790;42.668;23.298;2023-07-31T14:24:20;4.95;;;3.53;;
35675;SDS011;21790;42.668;23.298;2023-07-31T14:26:45;6.60;;;3.53;;
35675;SDS011;21790;42.668;23.298;2023-07-31T14:29:11;4.32;;;3.92;;
35675;SDS011;21790;42.668;23.298;2023-07-31T14:31:37;5.22;;;3.38;;
35675;SDS011;21790;42.668;23.298;2023-07-31T14:34:02;5.80;;;3.50;;
35675;SDS011;21790;42.668;23.298;2023-07-31T14:36:28;4.00;;;3.60;;
35675;SDS011;21790;42.668;23.298;2023-07-31T14:38:53;6.43;;;3.92;;
35675;SDS011;21790;42.668;23.298;2023-07-31T14:41:19;5.47;;;3.53;;
35675;SDS011;21790;42.668;23.298;2023-07-31T14:43:45;4.97;;;3.60;;
35675;SDS011;21790;42.668;23.298;2023-07-31T14:46:10;5.60;;;3.63;;
35675;SDS011;21790;42.668;23.298;2023-07-31T14:48:37;4.85;;;3.45;;
35675;SDS011;21790;42.668;23.298;2023-07-31T14:51:02;4.82;;;3.75;;
35675;SDS011;21790;42.668;23.298;2023-07-31T14:53:28;6.05;;;3.35;;
35675;SDS011;21790;42.668;23.298;2023-07-31T14:55:56;4.28;;;3.47;;
35675;SDS011;21790;42.668;23.298;2023-07-31T14:58:22;4.65;;;3.50;;
35675;SDS011;21790;42.668;23.298;2023-07-31T15:00:49;3.95;;;3.53;;
35675;SDS011;21790;42.668;23.298;2023-07-31T15:03:14;6.72;;;3.75;;
35675;SDS011;21790;42.668;23.298;2023-07-31T15:05:40;4.47;;;3.40;;
35675;SDS011;21790;42.668;23.298;2023-07-31T15:08:05;7.88;;;3.30;;
35675;SDS011;21790;42.668;23.298;2023-07-31T15:10:31;3.67;;;3.25;;
35675;SDS011;21790;42.668;23.298;2023-07-31T15:12:57;8.02;;;3.38;;
35675;SDS011;21790;42.668;23.298;2023-07-31T15:15:23;4.30;;;3.20;;
35675;SDS011;21790;42.668;23.298;2023-07-31T15:17:49;3.67;;;3.22;;
35675;SDS011;21790;42.668;23.298;2023-07-31T15:20:14;5.35;;;3.15;;
35675;SDS011;21790;42.668;23.298;2023-07-31T15:22:40;11.15;;;2.72;;
35675;SDS011;21790;42.668;23.298;2023-07-31T15:25:06;5.70;;;2.85;;
35675;SDS011;21790;42.668;23.298;2023-07-31T15:27:35;4.82;;;2.50;;
35675;SDS011;21790;42.668;23.298;2023-07-31T15:30:01;4.50;;;2.70;;
35675;SDS011;21790;42.668;23.298;2023-07-31T15:32:30;8.30;;;2.83;;
35675;SDS011;21790;42.668;23.298;2023-07-31T15:34:56;4.57;;;2.10;;
35675;SDS011;21790;42.668;23.298;2023-07-31T15:37:21;9.00;;;2.67;;
35675;SDS011;21790;42.668;23.298;2023-07-31T15:39:47;12.63;;;2.47;;
35675;SDS011;21790;42.668;23.298;2023-07-31T15:42:13;4.10;;;2.30;;
35675;SDS011;21790;42.668;23.298;2023-07-31T15:44:38;6.55;;;1.98;;
35675;SDS011;21790;42.668;23.298;2023-07-31T15:47:06;2.95;;;1.85;;
35675;SDS011;21790;42.668;23.298;2023-07-31T15:49:32;9.35;;;2.95;;
35675;SDS011;21790;42.668;23.298;2023-07-31T15:51:59;3.75;;;2.50;;
35675;SDS011;21790;42.668;23.298;2023-07-31T15:54:25;11.05;;;2.63;;
35675;SDS011;21790;42.668;23.298;2023-07-31T16:06:27;5.13;;;2.10;;
35675;SDS011;21790;42.668;23.298;2023-07-31T16:08:52;3.50;;;1.88;;
35675;SDS011;21790;42.668;23.298;2023-07-31T16:14:53;3.28;;;2.13;;
35675;SDS011;21790;42.668;23.298;2023-07-31T16:25:41;6.00;;;1.90;;
35675;SDS011;21790;42.668;23.298;2023-07-31T16:31:31;6.30;;;2.70;;
35675;SDS011;21790;42.668;23.298;2023-07-31T16:37:00;5.57;;;2.45;;
35675;SDS011;21790;42.668;23.298;2023-07-31T16:39:27;4.03;;;2.15;;
35675;SDS011;21790;42.668;23.298;2023-07-31T16:48:16;6.27;;;2.33;;
35675;SDS011;21790;42.668;23.298;2023-07-31T16:50:41;3.47;;;2.17;;
35675;SDS011;21790;42.668;23.298;2023-07-31T16:53:17;2.42;;;1.55;;
35675;SDS011;21790;42.668;23.298;2023-07-31T16:55:45;3.58;;;2.20;;
35675;SDS011;21790;42.668;23.298;2023-07-31T17:00:44;4.75;;;1.90;;
35675;SDS011;21790;42.668;23.298;2023-07-31T17:03:18;2.63;;;2.00;;
35675;SDS011;21790;42.668;23.298;2023-07-31T17:05:44;3.33;;;1.80;;
35675;SDS011;21790;42.668;23.298;2023-07-31T17:10:50;5.65;;;2.10;;
35675;SDS011;21790;42.668;23.298;2023-07-31T17:13:22;2.58;;;1.80;;
35675;SDS011;21790;42.668;23.298;2023-07-31T17:15:48;4.45;;;1.88;;
35675;SDS011;21790;42.668;23.298;2023-07-31T17:18:14;2.67;;;2.08;;
35675;SDS011;21790;42.668;23.298;2023-07-31T17:20:47;4.50;;;2.03;;
35675;SDS011;21790;42.668;23.298;2023-07-31T17:23:14;5.78;;;1.63;;
35675;SDS011;21790;42.668;23.298;2023-07-31T17:25:53;3.03;;;1.98;;
35675;SDS011;21790;42.668;23.298;2023-07-31T17:28:21;3.20;;;1.95;;
35675;SDS011;21790;42.668;23.298;2023-07-31T17:31:05;3.17;;;1.85;;
35675;SDS011;21790;42.668;23.298;2023-07-31T17:33:48;5.53;;;2.10;;
35675;SDS011;21790;42.668;23.298;2023-07-31T17:36:32;5.72;;;2.00;;
35675;SDS011;21790;42.668;23.298;2023-07-31T17:38:58;2.80;;;2.15;;
35675;SDS011;21790;42.668;23.298;2023-07-31T17:47:23;6.32;;;3.63;;
35675;SDS011;21790;42.668;23.298;2023-07-31T17:49:55;18.90;;;5.40;;
35675;SDS011;21790;42.668;23.298;2023-07-31T17:52:36;10.68;;;4.20;;
35675;SDS011;21790;42.668;23.298;2023-07-31T18:00:30;9.50;;;4.38;;
35675;SDS011;21790;42.668;23.298;2023-07-31T18:02:58;16.70;;;10.00;;
35675;SDS011;21790;42.668;23.298;2023-07-31T18:05:25;5.10;;;2.33;;
35675;SDS011;21790;42.668;23.298;2023-07-31T18:08:08;7.68;;;4.18;;
35675;SDS011;21790;42.668;23.298;2023-07-31T18:13:23;6.93;;;4.25;;
35675;SDS011;21790;42.668;23.298;2023-07-31T18:15:49;5.47;;;2.92;;
35675;SDS011;21790;42.668;23.298;2023-07-31T18:18:17;10.60;;;7.72;;
35675;SDS011;21790;42.668;23.298;2023-07-31T18:20:51;6.95;;;4.03;;
35675;SDS011;21790;42.668;23.298;2023-07-31T18:25:55;11.80;;;6.65;;
35675;SDS011;21790;42.668;23.298;2023-07-31T18:34:10;4.65;;;3.90;;
35675;SDS011;21790;42.668;23.298;2023-07-31T18:36:37;6.93;;;3.92;;
35675;SDS011;21790;42.668;23.298;2023-07-31T18:41:40;6.60;;;3.42;;
35675;SDS011;21790;42.668;23.298;2023-07-31T18:44:06;5.03;;;2.47;;
35675;SDS011;21790;42.668;23.298;2023-07-31T18:46:34;12.60;;;7.43;;
35675;SDS011;21790;42.668;23.298;2023-07-31T18:49:00;14.82;;;7.85;;
35675;SDS011;21790;42.668;23.298;2023-07-31T18:51:41;8.70;;;3.35;;
35675;SDS011;21790;42.668;23.298;2023-07-31T18:54:07;6.15;;;3.10;;
35675;SDS011;21790;42.668;23.298;2023-07-31T18:56:33;10.77;;;2.97;;
35675;SDS011;21790;42.668;23.298;2023-07-31T18:59:00;5.93;;;3.58;;
35675;SDS011;21790;42.668;23.298;2023-07-31T19:01:26;5.78;;;2.63;;
35675;SDS011;21790;42.668;23.298;2023-07-31T19:03:53;5.78;;;3.80;;
35675;SDS011;21790;42.668;23.298;2023-07-31T19:06:23;5.82;;;4.85;;
35675;SDS011;21790;42.668;23.298;2023-07-31T19:08:53;11.05;;;7.80;;
35675;SDS011;21790;42.668;23.298;2023-07-31T19:14:42;8.77;;;3.78;;
35675;SDS011;21790;42.668;23.298;2023-07-31T19:17:09;4.50;;;2.72;;
35675;SDS011;21790;42.668;23.298;2023-07-31T19:19:35;3.55;;;2.55;;
35675;SDS011;21790;42.668;23.298;2023-07-31T19:22:02;3.60;;;2.75;;
35675;SDS011;21790;42.668;23.298;2023-07-31T19:24:32;4.38;;;3.08;;
35675;SDS011;21790;42.668;23.298;2023-07-31T19:48:19;5.10;;;3.20;;
35675;SDS011;21790;42.668;23.298;2023-07-31T19:53:20;3.40;;;2.90;;
35675;SDS011;21790;42.668;23.298;2023-07-31T19:58:16;4.00;;;2.03;;
35675;SDS011;21790;42.668;23.298;2023-07-31T20:00:42;3.90;;;2.22;;
35675;SDS011;21790;42.668;23.298;2023-07-31T20:03:09;2.58;;;1.90;;
35675;SDS011;21790;42.668;23.298;2023-07-31T20:05:35;3.55;;;2.53;;
35675;SDS011;21790;42.668;23.298;2023-07-31T20:08:04;4.18;;;2.10;;
35675;SDS011;21790;42.668;23.298;2023-07-31T20:15:40;3.38;;;2.10;;
35675;SDS011;21790;42.668;23.298;2023-07-31T20:18:22;5.10;;;2.50;;
35675;SDS011;21790;42.668;23.298;2023-07-31T20:20:50;11.70;;;6.30;;
35675;SDS011;21790;42.668;23.298;2023-07-31T20:28:16;2.97;;;2.20;;
35675;SDS011;21790;42.668;23.298;2023-07-31T20:30:46;4.18;;;3.17;;
35675;SDS011;21790;42.668;23.298;2023-07-31T20:33:22;3.70;;;2.40;;
35675;SDS011;21790;42.668;23.298;2023-07-31T20:38:44;3.15;;;2.42;;
35675;SDS011;21790;42.668;23.298;2023-07-31T20:41:18;1.88;;;1.65;;
35675;SDS011;21790;42.668;23.298;2023-07-31T20:46:47;2.40;;;1.60;;
35675;SDS011;21790;42.668;23.298;2023-07-31T20:49:16;2.67;;;2.00;;
35675;SDS011;21790;42.668;23.298;2023-07-31T20:54:51;3.58;;;1.80;;
35675;SDS011;21790;42.668;23.298;2023-07-31T20:57:21;5.30;;;1.80;;
35675;SDS011;21790;42.668;23.298;2023-07-31T20:59:46;2.63;;;2.10;;
35675;SDS011;21790;42.668;23.298;2023-07-31T21:02:19;1.88;;;1.60;;
35675;SDS011;21790;42.668;23.298;2023-07-31T21:04:46;5.88;;;1.90;;
35675;SDS011;21790;42.668;23.298;2023-07-31T21:07:26;3.15;;;2.08;;
35675;SDS011;21790;42.668;23.298;2023-07-31T21:09:53;2.88;;;1.73;;
35675;SDS011;21790;42.668;23.298;2023-07-31T21:12:34;2.15;;;1.77;;
35675;SDS011;21790;42.668;23.298;2023-07-31T21:15:20;2.70;;;1.80;;
35675;SDS011;21790;42.668;23.298;2023-07-31T21:21:23;4.30;;;2.20;;
35675;SDS011;21790;42.668;23.298;2023-07-31T21:23:53;3.60;;;2.20;;
35675;SDS011;21790;42.668;23.298;2023-07-31T21:26:18;2.15;;;1.60;;
35675;SDS011;21790;42.668;23.298;2023-07-31T21:31:31;12.38;;;7.07;;
35675;SDS011;21790;42.668;23.298;2023-07-31T21:36:40;15.18;;;9.57;;
35675;SDS011;21790;42.668;23.298;2023-07-31T21:41:55;5.57;;;2.53;;
35675;SDS011;21790;42.668;23.298;2023-07-31T21:44:22;26.13;;;20.20;;
35675;SDS011;21790;42.668;23.298;2023-07-31T21:46:49;16.40;;;9.43;;
35675;SDS011;21790;42.668;23.298;2023-07-31T21:49:32;6.07;;;3.05;;
35675;SDS011;21790;42.668;23.298;2023-07-31T21:52:08;14.35;;;8.52;;
35675;SDS011;21790;42.668;23.298;2023-07-31T22:00:10;11.15;;;6.38;;
35675;SDS011;21790;42.668;23.298;2023-07-31T22:02:38;4.40;;;2.67;;
35675;SDS011;21790;42.668;23.298;2023-07-31T22:05:05;8.00;;;5.45;;
35675;SDS011;21790;42.668;23.298;2023-07-31T22:12:53;9.90;;;5.18;;
35675;SDS011;21790;42.668;23.298;2023-07-31T22:15:19;5.15;;;3.63;;
35675;SDS011;21790;42.668;23.298;2023-07-31T22:20:36;3.55;;;2.40;;
35675;SDS011;21790;42.668;23.298;2023-07-31T22:23:03;6.35;;;4.60;;